Time;durP1;ratioP1;P1;durP2;ratioP2;P2;SDS_P1;SDS_P2;PMS_P1;PMS_P2;Temp;Humidity;BMP_temperature;BMP_pressure;BME280_temperature;BME280_humidity;BME280_pressure;Samples;Min_cycle;Max_cycle;Signal;HPM_P1;HPM_P2
2021/07/07 00:02:02;;;;;;;4.37;1.30;;;;;;;;;;5068436;28;20307;-77
2021/07/07 00:04:27;;;;;;;3.08;1.25;;;;;;;;;;5067651;28;20675;-75
2021/07/07 00:06:53;;;;;;;1.50;1.00;;;;;;;;;;5069312;28;20242;-76
2021/07/07 00:09:19;;;;;;;2.25;0.93;;;;;;;;;;5055198;28;20205;-76
2021/07/07 00:11:45;;;;;;;1.77;1.00;;;;;;;;;;5068347;28;20209;-76
2021/07/07 00:14:10;;;;;;;3.08;1.20;;;;;;;;;;5056038;28;20204;-76
2021/07/07 00:16:35;;;;;;;5.88;1.23;;;;;;;;;;5062171;28;20197;-77
2021/07/07 00:19:01;;;;;;;5.63;1.03;;;;;;;;;;5066745;28;20193;-76
2021/07/07 00:21:26;;;;;;;1.60;1.08;;;;;;;;;;5067605;28;20266;-76
2021/07/07 00:23:51;;;;;;;1.70;1.10;;;;;;;;;;5051136;28;20224;-76
2021/07/07 00:26:16;;;;;;;1.60;1.10;;;;;;;;;;5053395;28;20185;-76
2021/07/07 00:28:42;;;;;;;2.20;1.08;;;;;;;;;;5050915;28;20220;-77
2021/07/07 00:31:07;;;;;;;2.53;1.20;;;;;;;;;;5056483;28;20213;-76
2021/07/07 00:33:32;;;;;;;1.77;1.15;;;;;;;;;;5053644;28;20221;-77
2021/07/07 00:35:58;;;;;;;3.53;1.30;;;;;;;;;;5063406;28;20224;-76
2021/07/07 00:38:23;;;;;;;3.70;1.10;;;;;;;;;;5054733;28;20204;-77
2021/07/07 00:40:48;;;;;;;5.97;1.17;;;;;;;;;;5067589;28;20213;-77
2021/07/07 00:43:15;;;;;;;5.27;1.10;;;;;;;;;;5065728;28;20196;-77
2021/07/07 00:45:41;;;;;;;2.77;1.10;;;;;;;;;;5052251;28;20269;-77
2021/07/07 00:48:07;;;;;;;4.90;1.43;;;;;;;;;;5065435;28;20216;-77
2021/07/07 00:50:33;;;;;;;3.58;1.20;;;;;;;;;;5059683;28;20244;-77
2021/07/07 00:52:58;;;;;;;3.67;1.23;;;;;;;;;;5065296;28;20189;-77
2021/07/07 00:55:24;;;;;;;4.13;1.10;;;;;;;;;;5067050;28;20276;-76
2021/07/07 00:57:51;;;;;;;1.77;1.00;;;;;;;;;;5035820;28;20269;-75
2021/07/07 01:00:20;;;;;;;2.42;1.40;;;;;;;;;;5050604;28;20197;-75
2021/07/07 01:02:47;;;;;;;4.82;1.10;;;;;;;;;;5063019;28;20189;-77
2021/07/07 01:05:14;;;;;;;6.03;1.30;;;;;;;;;;5067043;28;20193;-76
2021/07/07 01:07:40;;;;;;;3.88;1.40;;;;;;;;;;5059180;28;20224;-76
2021/07/07 01:10:07;;;;;;;3.53;1.40;;;;;;;;;;5060908;28;20193;-76
2021/07/07 01:12:33;;;;;;;2.92;1.33;;;;;;;;;;5069920;28;20239;-76
2021/07/07 01:15:04;;;;;;;2.30;1.40;;;;;;;;;;5056299;28;20243;-77
2021/07/07 01:17:32;;;;;;;3.72;1.20;;;;;;;;;;5053049;28;20188;-77
2021/07/07 01:19:58;;;;;;;1.77;1.05;;;;;;;;;;5066510;28;20200;-75
2021/07/07 01:22:23;;;;;;;2.53;1.20;;;;;;;;;;5057447;28;20206;-76
2021/07/07 01:24:49;;;;;;;4.93;1.20;;;;;;;;;;5057468;28;20277;-76
2021/07/07 01:27:14;;;;;;;2.75;1.00;;;;;;;;;;5061463;28;20190;-77
2021/07/07 01:29:39;;;;;;;8.52;1.40;;;;;;;;;;5059671;28;20193;-74
2021/07/07 01:32:05;;;;;;;2.80;1.38;;;;;;;;;;5071334;28;20227;-75
2021/07/07 01:34:30;;;;;;;2.53;1.10;;;;;;;;;;5063845;28;20177;-77
2021/07/07 01:36:55;;;;;;;3.85;1.10;;;;;;;;;;5071008;28;20189;-74
2021/07/07 01:39:21;;;;;;;5.85;1.50;;;;;;;;;;5067932;28;20185;-76
2021/07/07 01:41:46;;;;;;;1.83;1.10;;;;;;;;;;5065728;28;20203;-77
2021/07/07 01:44:11;;;;;;;3.95;1.05;;;;;;;;;;5065906;28;20190;-75
2021/07/07 01:46:36;;;;;;;2.42;1.40;;;;;;;;;;5063848;28;20698;-76
2021/07/07 01:49:03;;;;;;;2.40;1.20;;;;;;;;;;5070873;28;20209;-77
2021/07/07 01:51:28;;;;;;;5.03;1.10;;;;;;;;;;5063002;28;20810;-77
2021/07/07 01:53:53;;;;;;;4.53;1.50;;;;;;;;;;5069903;28;20276;-77
2021/07/07 01:56:19;;;;;;;4.57;1.48;;;;;;;;;;5067310;28;20243;-77
2021/07/07 01:58:44;;;;;;;6.93;1.50;;;;;;;;;;5064871;28;20182;-77
2021/07/07 02:01:10;;;;;;;5.53;1.40;;;;;;;;;;5066379;28;20295;-76
2021/07/07 02:03:35;;;;;;;6.50;1.40;;;;;;;;;;5063867;28;20197;-75
2021/07/07 02:06:01;;;;;;;4.70;1.38;;;;;;;;;;5065709;28;20726;-76
2021/07/07 02:08:26;;;;;;;7.22;1.60;;;;;;;;;;5071396;28;20212;-76
2021/07/07 02:10:52;;;;;;;2.27;0.97;;;;;;;;;;5059240;28;20267;-76
2021/07/07 02:13:18;;;;;;;3.43;1.40;;;;;;;;;;5052459;28;20181;-77
2021/07/07 02:15:43;;;;;;;5.37;1.40;;;;;;;;;;5070513;28;20550;-76
2021/07/07 02:18:09;;;;;;;3.35;1.10;;;;;;;;;;5064090;28;20211;-76
2021/07/07 02:20:40;;;;;;;4.47;1.20;;;;;;;;;;5069335;28;20201;-76
2021/07/07 02:23:08;;;;;;;2.85;1.20;;;;;;;;;;5037842;28;20181;-77
2021/07/07 02:25:35;;;;;;;3.75;1.00;;;;;;;;;;5069880;28;20189;-76
2021/07/07 02:28:01;;;;;;;4.53;1.13;;;;;;;;;;5056110;28;20325;-76
2021/07/07 02:30:32;;;;;;;4.13;1.40;;;;;;;;;;5067389;28;20870;-75
2021/07/07 02:32:58;;;;;;;9.57;1.30;;;;;;;;;;5067637;28;20305;-74
2021/07/07 02:35:27;;;;;;;7.93;1.65;;;;;;;;;;5073510;22;20222;-58
2021/07/07 02:37:53;;;;;;;6.63;1.40;;;;;;;;;;5054613;28;20291;-58
2021/07/07 02:40:22;;;;;;;3.40;1.30;;;;;;;;;;5055013;28;20196;-57
2021/07/07 02:42:48;;;;;;;7.22;1.63;;;;;;;;;;5052954;28;20209;-58
2021/07/07 02:45:15;;;;;;;3.83;1.10;;;;;;;;;;5068012;28;20256;-58
2021/07/07 02:47:42;;;;;;;4.67;1.47;;;;;;;;;;5056437;28;20221;-58
2021/07/07 02:50:10;;;;;;;4.20;1.30;;;;;;;;;;5056723;28;20675;-58
2021/07/07 02:52:41;;;;;;;4.50;1.92;;;;;;;;;;5049829;28;20593;-57
2021/07/07 02:55:08;;;;;;;8.87;1.60;;;;;;;;;;5044741;28;20255;-58
2021/07/07 02:57:56;;;;;;;4.00;1.20;;;;;;;;;;5072099;28;20271;-57
2021/07/07 03:00:19;;;;;;;9.33;1.50;;;;;;;;;;5085163;22;20248;-61
2021/07/07 03:02:44;;;;;;;1.88;1.20;;;;;;;;;;5051282;28;20212;-61
2021/07/07 03:05:10;;;;;;;7.73;1.40;;;;;;;;;;5065057;28;20201;-62
2021/07/07 03:07:35;;;;;;;4.00;1.38;;;;;;;;;;5053589;28;20210;-61
2021/07/07 03:10:07;;;;;;;4.97;1.40;;;;;;;;;;5064960;28;20274;-61
2021/07/07 03:12:32;;;;;;;5.25;1.60;;;;;;;;;;5069487;28;20189;-62
2021/07/07 03:14:57;;;;;;;7.43;1.80;;;;;;;;;;5069462;28;20200;-61
2021/07/07 03:17:23;;;;;;;8.13;1.38;;;;;;;;;;5051767;28;20696;-61
2021/07/07 03:19:48;;;;;;;2.60;1.37;;;;;;;;;;5057610;28;20213;-60
2021/07/07 03:22:13;;;;;;;5.07;1.30;;;;;;;;;;5069843;28;20189;-61
2021/07/07 03:24:38;;;;;;;1.40;1.00;;;;;;;;;;5062427;28;20220;-60
2021/07/07 03:27:04;;;;;;;5.23;1.27;;;;;;;;;;5065198;28;20196;-61
2021/07/07 03:29:29;;;;;;;5.03;1.67;;;;;;;;;;5068980;28;20316;-60
2021/07/07 03:31:54;;;;;;;4.00;1.50;;;;;;;;;;5068485;28;20189;-60
2021/07/07 03:34:19;;;;;;;3.83;1.23;;;;;;;;;;5050072;28;20192;-61
2021/07/07 03:36:45;;;;;;;2.93;1.40;;;;;;;;;;5069315;28;20197;-61
2021/07/07 03:39:10;;;;;;;3.70;1.30;;;;;;;;;;5069610;28;20366;-61
2021/07/07 03:41:35;;;;;;;4.00;1.43;;;;;;;;;;5073477;28;20663;-61
2021/07/07 03:44:01;;;;;;;2.10;1.20;;;;;;;;;;5070979;28;20204;-61
2021/07/07 03:46:26;;;;;;;2.73;1.20;;;;;;;;;;5068576;28;20185;-61
2021/07/07 03:48:51;;;;;;;1.40;1.30;;;;;;;;;;5066631;28;20213;-60
2021/07/07 03:51:16;;;;;;;3.27;1.20;;;;;;;;;;5067242;28;20221;-60
2021/07/07 03:53:42;;;;;;;2.70;1.50;;;;;;;;;;5051489;28;20185;-60
2021/07/07 03:56:07;;;;;;;8.10;1.50;;;;;;;;;;5061224;28;20217;-59
2021/07/07 03:58:32;;;;;;;4.37;1.40;;;;;;;;;;5065824;28;20189;-59
2021/07/07 04:00:57;;;;;;;6.33;1.50;;;;;;;;;;5070144;28;20259;-59
2021/07/07 04:03:23;;;;;;;10.07;1.70;;;;;;;;;;5077077;28;20193;-61
2021/07/07 04:05:48;;;;;;;5.67;1.67;;;;;;;;;;5067258;28;20239;-59
2021/07/07 04:08:13;;;;;;;5.83;1.40;;;;;;;;;;5068802;28;20209;-61
2021/07/07 04:10:39;;;;;;;5.30;1.60;;;;;;;;;;5061242;28;20244;-60
2021/07/07 04:13:04;;;;;;;2.40;1.30;;;;;;;;;;5050052;28;20216;-59
2021/07/07 04:15:29;;;;;;;4.50;2.00;;;;;;;;;;5067533;28;20271;-59
2021/07/07 04:17:54;;;;;;;4.20;1.60;;;;;;;;;;5068147;28;20259;-59
2021/07/07 04:20:20;;;;;;;8.13;1.30;;;;;;;;;;5067224;28;20225;-60
2021/07/07 04:22:47;;;;;;;5.77;1.40;;;;;;;;;;5068550;28;20197;-60
2021/07/07 04:25:14;;;;;;;5.37;1.20;;;;;;;;;;5048809;28;20194;-59
2021/07/07 04:27:39;;;;;;;7.80;1.43;;;;;;;;;;5069091;28;20583;-61
2021/07/07 04:30:07;;;;;;;3.93;1.40;;;;;;;;;;5043341;28;20217;-60
2021/07/07 04:32:32;;;;;;;7.47;1.80;;;;;;;;;;5065458;28;20535;-60
2021/07/07 04:34:58;;;;;;;7.57;1.48;;;;;;;;;;5066489;28;20197;-60
2021/07/07 04:37:23;;;;;;;9.63;1.77;;;;;;;;;;5061812;28;20196;-60
2021/07/07 04:39:48;;;;;;;1.30;1.07;;;;;;;;;;5067762;28;20217;-61
2021/07/07 04:42:13;;;;;;;6.30;1.40;;;;;;;;;;5077991;28;20194;-61
2021/07/07 04:44:39;;;;;;;4.77;1.30;;;;;;;;;;5070614;28;20253;-62
2021/07/07 04:47:05;;;;;;;4.55;1.40;;;;;;;;;;5071582;28;20201;-61
2021/07/07 04:49:30;;;;;;;8.32;1.70;;;;;;;;;;5069800;28;20225;-61
2021/07/07 04:51:55;;;;;;;8.07;1.92;;;;;;;;;;5060374;28;20254;-61
2021/07/07 04:54:20;;;;;;;3.77;1.40;;;;;;;;;;5068013;28;20281;-59
2021/07/07 04:56:46;;;;;;;7.30;1.33;;;;;;;;;;5068652;28;20185;-60
2021/07/07 04:59:11;;;;;;;4.13;1.30;;;;;;;;;;5055690;28;20288;-59
2021/07/07 05:01:38;;;;;;;7.77;1.70;;;;;;;;;;5071373;28;20246;-62
2021/07/07 05:04:05;;;;;;;4.00;1.80;;;;;;;;;;5071061;28;20631;-60
2021/07/07 05:06:31;;;;;;;4.07;1.48;;;;;;;;;;5049166;28;20288;-60
2021/07/07 05:08:56;;;;;;;7.78;1.30;;;;;;;;;;5064770;28;20300;-60
2021/07/07 05:11:21;;;;;;;11.88;1.63;;;;;;;;;;5070625;28;20185;-61
2021/07/07 05:13:47;;;;;;;4.97;1.50;;;;;;;;;;5081117;28;20193;-61
2021/07/07 05:16:12;;;;;;;5.75;1.50;;;;;;;;;;5055432;28;20202;-60
2021/07/07 05:18:38;;;;;;;11.52;1.63;;;;;;;;;;5051861;28;20215;-62
2021/07/07 05:21:03;;;;;;;6.88;1.48;;;;;;;;;;5048386;28;20588;-62
2021/07/07 05:23:28;;;;;;;4.38;1.77;;;;;;;;;;5053191;28;20212;-61
2021/07/07 05:25:54;;;;;;;6.85;1.58;;;;;;;;;;5053323;28;20193;-61
2021/07/07 05:28:19;;;;;;;5.32;1.77;;;;;;;;;;5068920;28;20690;-62
2021/07/07 05:30:45;;;;;;;3.90;1.50;;;;;;;;;;5053863;28;20185;-60
2021/07/07 05:33:10;;;;;;;3.65;1.67;;;;;;;;;;5050889;28;20228;-60
2021/07/07 05:35:37;;;;;;;3.50;1.17;;;;;;;;;;5067790;28;20669;-61
2021/07/07 05:38:03;;;;;;;7.43;1.85;;;;;;;;;;5068401;28;20189;-60
2021/07/07 05:40:28;;;;;;;3.70;1.30;;;;;;;;;;5064193;28;20212;-60
2021/07/07 05:42:54;;;;;;;6.38;1.70;;;;;;;;;;5052568;28;20207;-60
2021/07/07 05:45:22;;;;;;;8.35;1.80;;;;;;;;;;5066645;28;20178;-61
2021/07/07 05:47:48;;;;;;;5.65;1.27;;;;;;;;;;5049041;28;20255;-61
2021/07/07 05:50:14;;;;;;;2.65;1.20;;;;;;;;;;5068932;28;20201;-61
2021/07/07 05:52:39;;;;;;;4.35;1.55;;;;;;;;;;5069521;28;20181;-60
2021/07/07 05:55:05;;;;;;;3.03;1.50;;;;;;;;;;5051516;28;20199;-60
2021/07/07 05:57:48;;;;;;;6.32;1.33;;;;;;;;;;5061823;28;20189;-60
2021/07/07 06:00:20;;;;;;;1.60;1.27;;;;;;;;;;5065158;28;20220;-60
2021/07/07 06:02:47;;;;;;;6.03;1.60;;;;;;;;;;5068790;28;20189;-60
2021/07/07 06:05:13;;;;;;;2.58;1.40;;;;;;;;;;5067564;28;20308;-59
2021/07/07 06:07:39;;;;;;;5.47;1.63;;;;;;;;;;5039372;28;20585;-62
2021/07/07 06:10:06;;;;;;;4.60;1.50;;;;;;;;;;5064885;28;20700;-61
2021/07/07 06:12:31;;;;;;;6.63;1.27;;;;;;;;;;5059010;28;20192;-63
2021/07/07 06:14:57;;;;;;;2.47;1.30;;;;;;;;;;5065350;28;20193;-62
2021/07/07 06:17:22;;;;;;;3.78;1.60;;;;;;;;;;5058921;28;20224;-61
2021/07/07 06:19:47;;;;;;;4.32;1.45;;;;;;;;;;5062208;28;20212;-61
2021/07/07 06:22:13;;;;;;;9.05;1.63;;;;;;;;;;5056494;28;20224;-63
2021/07/07 06:24:38;;;;;;;2.85;1.30;;;;;;;;;;5065283;28;20264;-59
2021/07/07 06:27:03;;;;;;;7.68;1.42;;;;;;;;;;5058435;28;20186;-61
2021/07/07 06:29:29;;;;;;;6.93;1.35;;;;;;;;;;5068345;28;20221;-62
2021/07/07 06:31:54;;;;;;;2.33;1.35;;;;;;;;;;5066829;28;20197;-62
2021/07/07 06:34:19;;;;;;;2.00;1.13;;;;;;;;;;5067423;28;20649;-63
2021/07/07 06:36:44;;;;;;;3.70;1.38;;;;;;;;;;5068125;28;20201;-62
2021/07/07 06:39:10;;;;;;;1.52;1.30;;;;;;;;;;5050448;28;20216;-60
2021/07/07 06:41:35;;;;;;;3.78;1.30;;;;;;;;;;5060837;28;20215;-61
2021/07/07 06:44:00;;;;;;;2.55;1.38;;;;;;;;;;5068851;28;20222;-62
2021/07/07 06:46:26;;;;;;;4.90;1.50;;;;;;;;;;5061397;28;20189;-64
2021/07/07 06:48:51;;;;;;;2.50;1.48;;;;;;;;;;5069249;28;20209;-62
2021/07/07 06:51:17;;;;;;;2.95;1.38;;;;;;;;;;5068448;28;20213;-61
2021/07/07 06:53:42;;;;;;;2.75;1.38;;;;;;;;;;5062447;28;20216;-61
2021/07/07 06:56:07;;;;;;;3.78;1.30;;;;;;;;;;5060755;28;20194;-61
2021/07/07 06:58:33;;;;;;;3.28;1.25;;;;;;;;;;5058764;28;20193;-62
2021/07/07 07:00:58;;;;;;;6.72;1.50;;;;;;;;;;5061051;28;20190;-62
2021/07/07 07:03:23;;;;;;;2.65;1.13;;;;;;;;;;5062088;28;20217;-61
2021/07/07 07:05:48;;;;;;;4.57;1.45;;;;;;;;;;5065852;28;20608;-62
2021/07/07 07:08:16;;;;;;;3.58;1.30;;;;;;;;;;5067743;28;20223;-62
2021/07/07 07:10:41;;;;;;;3.05;1.33;;;;;;;;;;5061886;28;20209;-61
2021/07/07 07:13:07;;;;;;;7.22;1.70;;;;;;;;;;5062468;28;20318;-58
2021/07/07 07:15:33;;;;;;;1.20;1.00;;;;;;;;;;5057599;28;20306;-61
2021/07/07 07:17:58;;;;;;;2.40;1.20;;;;;;;;;;5059464;28;20634;-60
2021/07/07 07:20:27;;;;;;;2.33;1.40;;;;;;;;;;5050413;28;20211;-59
2021/07/07 07:22:52;;;;;;;2.10;1.17;;;;;;;;;;5057206;28;20188;-60
2021/07/07 07:25:18;;;;;;;3.10;1.20;;;;;;;;;;5060641;28;20182;-59
2021/07/07 07:27:43;;;;;;;2.97;1.35;;;;;;;;;;5060787;28;20217;-59
2021/07/07 07:30:10;;;;;;;3.22;1.13;;;;;;;;;;5054759;28;20205;-61
2021/07/07 07:32:35;;;;;;;3.33;1.30;;;;;;;;;;5049939;28;20181;-60
2021/07/07 07:35:00;;;;;;;4.30;1.33;;;;;;;;;;5066382;28;20199;-61
2021/07/07 07:37:37;;;;;;;5.85;1.88;;;;;;;;;;5066886;28;20204;-60
2021/07/07 07:40:09;;;;;;;1.88;1.20;;;;;;;;;;5063353;28;20742;-60
2021/07/07 07:42:35;;;;;;;2.63;1.30;;;;;;;;;;5065142;28;20205;-60
2021/07/07 07:45:00;;;;;;;4.97;1.50;;;;;;;;;;5063915;28;20189;-60
2021/07/07 07:47:25;;;;;;;2.42;1.30;;;;;;;;;;5062045;28;20198;-62
2021/07/07 07:49:51;;;;;;;1.55;1.10;;;;;;;;;;5042818;28;20763;-60
2021/07/07 07:52:18;;;;;;;2.90;1.30;;;;;;;;;;5060201;28;20212;-62
2021/07/07 07:54:43;;;;;;;2.80;1.20;;;;;;;;;;5060717;28;20193;-64
2021/07/07 07:57:08;;;;;;;4.85;1.67;;;;;;;;;;5063192;28;20369;-61
2021/07/07 07:59:34;;;;;;;3.30;1.50;;;;;;;;;;5059285;28;20293;-63
2021/07/07 08:01:59;;;;;;;3.85;1.20;;;;;;;;;;5057067;28;20244;-62
2021/07/07 08:04:24;;;;;;;9.88;1.52;;;;;;;;;;5054424;28;20197;-61
2021/07/07 08:06:50;;;;;;;2.90;1.40;;;;;;;;;;5055487;28;20416;-61
2021/07/07 08:09:15;;;;;;;2.95;1.25;;;;;;;;;;5055809;28;20212;-62
2021/07/07 08:11:42;;;;;;;1.67;1.02;;;;;;;;;;5049799;28;20255;-61
2021/07/07 08:14:08;;;;;;;1.83;1.08;;;;;;;;;;5060807;28;20272;-63
2021/07/07 08:16:33;;;;;;;2.92;1.40;;;;;;;;;;5044189;28;20299;-62
2021/07/07 08:18:58;;;;;;;1.48;1.15;;;;;;;;;;5055546;28;20289;-63
2021/07/07 08:21:24;;;;;;;6.78;1.40;;;;;;;;;;5057375;28;20242;-61
2021/07/07 08:23:49;;;;;;;2.78;1.17;;;;;;;;;;5064485;28;20197;-61
2021/07/07 08:26:14;;;;;;;1.48;0.98;;;;;;;;;;5062550;28;20847;-62
2021/07/07 08:28:40;;;;;;;1.70;1.20;;;;;;;;;;5063641;28;20219;-61
2021/07/07 08:31:05;;;;;;;2.42;1.15;;;;;;;;;;5054726;28;20197;-61
2021/07/07 08:33:31;;;;;;;3.30;1.20;;;;;;;;;;5058234;28;20708;-63
2021/07/07 08:35:56;;;;;;;2.17;1.15;;;;;;;;;;5061863;28;20665;-61
2021/07/07 08:38:21;;;;;;;4.05;1.40;;;;;;;;;;5045135;28;20185;-61
2021/07/07 08:40:47;;;;;;;8.32;1.70;;;;;;;;;;5063857;28;20671;-61
2021/07/07 08:43:12;;;;;;;4.25;1.58;;;;;;;;;;5043586;28;20548;-63
2021/07/07 08:45:37;;;;;;;3.78;1.48;;;;;;;;;;5037345;28;20186;-61
2021/07/07 08:48:03;;;;;;;2.05;1.13;;;;;;;;;;5062236;28;20401;-62
2021/07/07 08:50:31;;;;;;;4.30;1.20;;;;;;;;;;5041552;28;20871;-61
2021/07/07 08:52:59;;;;;;;2.65;1.30;;;;;;;;;;5060300;28;20192;-62
2021/07/07 08:55:25;;;;;;;3.13;1.42;;;;;;;;;;5064193;28;20189;-62
2021/07/07 08:57:51;;;;;;;1.38;1.10;;;;;;;;;;5059771;28;20388;-63
2021/07/07 09:00:30;;;;;;;2.13;1.10;;;;;;;;;;5055412;28;20220;-62
2021/07/07 09:02:58;;;;;;;3.83;1.50;;;;;;;;;;5046431;28;20193;-62
2021/07/07 09:05:25;;;;;;;3.83;1.52;;;;;;;;;;5045378;28;20193;-63
2021/07/07 09:07:50;;;;;;;1.80;1.20;;;;;;;;;;5060904;28;20774;-62
2021/07/07 09:10:18;;;;;;;5.53;1.38;;;;;;;;;;5044984;28;20239;-61
2021/07/07 09:12:44;;;;;;;4.97;1.92;;;;;;;;;;5064071;28;20197;-62
2021/07/07 09:15:16;;;;;;;2.20;1.25;;;;;;;;;;5045671;28;20605;-63
2021/07/07 09:17:41;;;;;;;2.10;1.10;;;;;;;;;;5060224;28;20201;-59
2021/07/07 09:20:22;;;;;;;2.60;1.30;;;;;;;;;;5061325;28;20204;-61
2021/07/07 09:22:48;;;;;;;1.48;1.33;;;;;;;;;;5046082;28;20190;-60
2021/07/07 09:25:14;;;;;;;5.20;1.42;;;;;;;;;;5060810;28;20208;-60
2021/07/07 09:27:40;;;;;;;2.17;1.42;;;;;;;;;;5063503;28;20178;-61
2021/07/07 09:30:13;;;;;;;1.67;1.23;;;;;;;;;;5060543;28;20225;-59
2021/07/07 09:32:47;;;;;;;1.75;1.15;;;;;;;;;;5063031;28;20186;-61
2021/07/07 09:35:13;;;;;;;4.20;1.40;;;;;;;;;;5064808;28;20193;-63
2021/07/07 09:37:45;;;;;;;4.05;1.50;;;;;;;;;;5065441;28;20245;-64
2021/07/07 09:40:12;;;;;;;4.25;1.38;;;;;;;;;;5062132;28;20220;-65
2021/07/07 09:42:40;;;;;;;2.25;1.30;;;;;;;;;;5064361;28;20579;-64
2021/07/07 09:45:15;;;;;;;3.53;1.20;;;;;;;;;;5050101;28;20196;-63
2021/07/07 09:47:41;;;;;;;1.98;1.23;;;;;;;;;;5058073;28;20177;-64
2021/07/07 09:50:07;;;;;;;7.85;1.70;;;;;;;;;;5061335;28;20769;-64
2021/07/07 09:52:33;;;;;;;4.78;1.58;;;;;;;;;;5064756;28;20196;-65
2021/07/07 09:55:03;;;;;;;4.43;1.40;;;;;;;;;;5060816;28;20185;-64
2021/07/07 09:57:29;;;;;;;2.35;1.20;;;;;;;;;;5059822;28;20280;-64
2021/07/07 09:59:54;;;;;;;3.22;1.35;;;;;;;;;;5061130;28;20346;-64
2021/07/07 10:02:19;;;;;;;1.77;1.48;;;;;;;;;;5062276;28;20208;-64
2021/07/07 10:04:45;;;;;;;6.03;1.50;;;;;;;;;;5050325;28;20265;-64
2021/07/07 10:07:14;;;;;;;3.88;1.27;;;;;;;;;;5046954;28;20723;-64
2021/07/07 10:09:46;;;;;;;3.20;1.35;;;;;;;;;;5066055;28;20590;-65
2021/07/07 10:12:13;;;;;;;2.40;1.20;;;;;;;;;;5054164;28;20193;-63
2021/07/07 10:14:38;;;;;;;1.98;1.30;;;;;;;;;;5067539;28;20178;-63
2021/07/07 10:17:04;;;;;;;2.88;1.30;;;;;;;;;;5066538;28;20382;-65
2021/07/07 10:19:30;;;;;;;2.28;1.40;;;;;;;;;;5064600;28;20212;-64
2021/07/07 10:21:56;;;;;;;2.90;1.65;;;;;;;;;;5062641;28;20201;-64
2021/07/07 10:24:25;;;;;;;4.57;1.30;;;;;;;;;;5048210;28;20189;-63
2021/07/07 10:26:52;;;;;;;5.72;1.60;;;;;;;;;;5066794;28;20742;-64
2021/07/07 10:29:18;;;;;;;5.13;1.25;;;;;;;;;;5066343;28;20217;-64
2021/07/07 10:31:47;;;;;;;2.22;1.40;;;;;;;;;;5065075;28;20185;-65
2021/07/07 10:34:13;;;;;;;2.55;1.50;;;;;;;;;;5059417;28;20341;-66
2021/07/07 10:36:42;;;;;;;5.43;1.65;;;;;;;;;;5065785;28;20673;-64
2021/07/07 10:39:09;;;;;;;2.78;1.45;;;;;;;;;;5063881;28;20213;-64
2021/07/07 10:41:40;;;;;;;5.35;1.80;;;;;;;;;;5065417;28;20247;-65
2021/07/07 10:44:06;;;;;;;2.17;1.48;;;;;;;;;;5063511;28;20272;-66
2021/07/07 10:47:02;;;;;;;2.38;1.40;;;;;;;;;;5049076;28;21808;-64
2021/07/07 10:49:29;;;;;;;5.70;1.70;;;;;;;;;;5063769;28;20213;-65
2021/07/07 10:51:57;;;;;;;2.75;1.45;;;;;;;;;;5060633;28;20819;-64
2021/07/07 10:54:31;;;;;;;2.53;1.30;;;;;;;;;;5067450;28;20276;-63
2021/07/07 10:56:57;;;;;;;3.83;1.77;;;;;;;;;;5050444;28;20216;-63
2021/07/07 10:59:39;;;;;;;4.78;1.55;;;;;;;;;;5063026;28;20212;-64
2021/07/07 11:02:08;;;;;;;2.40;1.50;;;;;;;;;;5065984;28;20177;-63
2021/07/07 11:04:38;;;;;;;2.30;1.45;;;;;;;;;;5066563;28;20250;-64
2021/07/07 11:07:22;;;;;;;2.22;1.48;;;;;;;;;;5066945;28;20191;-63
2021/07/07 11:09:52;;;;;;;2.35;1.52;;;;;;;;;;5064180;28;20259;-63
2021/07/07 11:12:19;;;;;;;3.67;1.55;;;;;;;;;;5066065;28;20188;-64
2021/07/07 11:15:04;;;;;;;4.57;1.40;;;;;;;;;;5065759;28;20188;-63
2021/07/07 11:17:34;;;;;;;2.80;1.38;;;;;;;;;;5044436;28;20185;-65
2021/07/07 11:20:20;;;;;;;3.10;1.40;;;;;;;;;;5065537;28;20689;-68
2021/07/07 11:22:47;;;;;;;4.63;1.50;;;;;;;;;;5065997;28;20325;-67
2021/07/07 11:25:15;;;;;;;2.88;1.30;;;;;;;;;;5047428;28;20189;-68
2021/07/07 11:27:42;;;;;;;3.53;1.50;;;;;;;;;;5053708;28;20189;-65
2021/07/07 11:30:13;;;;;;;1.98;1.20;;;;;;;;;;5066545;28;20197;-67
2021/07/07 11:32:47;;;;;;;4.32;1.80;;;;;;;;;;5065728;28;20228;-66
2021/07/07 11:35:13;;;;;;;2.42;1.45;;;;;;;;;;5065470;28;20189;-65
2021/07/07 11:37:39;;;;;;;2.10;1.55;;;;;;;;;;5065929;28;20189;-67
2021/07/07 11:40:18;;;;;;;7.55;1.50;;;;;;;;;;5064663;28;20244;-66
2021/07/07 11:43:08;;;;;;;4.32;1.48;;;;;;;;;;5062290;28;20197;-65
2021/07/07 11:45:52;;;;;;;3.75;1.33;;;;;;;;;;5062763;28;20193;-65
2021/07/07 11:50:58;;;;;;;5.95;1.52;;;;;;;;;;5066005;28;20199;-65
2021/07/07 11:53:53;;;;;;;4.28;1.75;;;;;;;;;;5047499;28;20181;-67
2021/07/07 11:56:23;;;;;;;3.33;1.55;;;;;;;;;;5057384;28;20280;-68
2021/07/07 11:58:53;;;;;;;2.72;1.40;;;;;;;;;;5058213;28;20213;-62
2021/07/07 12:01:24;;;;;;;4.57;1.42;;;;;;;;;;5059936;28;20177;-63
2021/07/07 12:03:53;;;;;;;3.67;1.60;;;;;;;;;;5068564;28;20645;-64
2021/07/07 12:06:31;;;;;;;4.63;1.38;;;;;;;;;;5063537;28;20568;-63
2021/07/07 12:08:56;;;;;;;3.00;1.52;;;;;;;;;;5059462;28;20213;-63
2021/07/07 12:11:23;;;;;;;3.08;1.50;;;;;;;;;;5067269;28;20188;-62
2021/07/07 12:13:50;;;;;;;1.67;1.42;;;;;;;;;;5066808;28;20728;-61
2021/07/07 12:16:20;;;;;;;5.22;1.75;;;;;;;;;;5061963;28;20199;-63
2021/07/07 12:18:50;;;;;;;2.28;1.27;;;;;;;;;;5060355;28;20286;-63
2021/07/07 12:21:21;;;;;;;2.20;1.40;;;;;;;;;;5062483;28;20299;-64
2021/07/07 12:23:52;;;;;;;3.03;1.30;;;;;;;;;;5063206;28;20351;-63
2021/07/07 12:26:18;;;;;;;5.60;1.63;;;;;;;;;;5058347;28;20197;-65
2021/07/07 12:28:43;;;;;;;2.85;1.42;;;;;;;;;;5041719;28;20677;-65
2021/07/07 12:31:09;;;;;;;2.58;1.50;;;;;;;;;;5058262;28;20284;-63
2021/07/07 12:33:34;;;;;;;5.18;1.55;;;;;;;;;;5042722;28;20665;-62
2021/07/07 12:36:00;;;;;;;2.50;1.30;;;;;;;;;;5060445;28;20189;-63
2021/07/07 12:38:25;;;;;;;3.88;1.50;;;;;;;;;;5044818;28;20195;-66
2021/07/07 12:40:53;;;;;;;3.38;1.58;;;;;;;;;;5058049;28;20186;-66
2021/07/07 12:43:26;;;;;;;3.42;1.40;;;;;;;;;;5055451;28;20705;-62
2021/07/07 12:46:08;;;;;;;5.55;1.45;;;;;;;;;;5058952;28;20186;-65
2021/07/07 12:48:55;;;;;;;4.05;1.40;;;;;;;;;;5059433;28;20293;-61
2021/07/07 12:51:21;;;;;;;3.78;1.52;;;;;;;;;;5036866;28;20343;-63
2021/07/07 12:53:47;;;;;;;3.17;1.15;;;;;;;;;;5056502;28;20602;-63
2021/07/07 12:56:13;;;;;;;2.40;1.58;;;;;;;;;;5065598;28;20278;-61
2021/07/07 12:58:38;;;;;;;4.70;1.48;;;;;;;;;;5045883;28;20185;-60
2021/07/07 13:01:18;;;;;;;5.20;1.55;;;;;;;;;;5063718;28;20227;-61
2021/07/07 13:03:44;;;;;;;3.00;1.30;;;;;;;;;;5048808;28;20185;-61
2021/07/07 13:06:19;;;;;;;2.78;1.27;;;;;;;;;;5066323;28;20196;-62
2021/07/07 13:08:48;;;;;;;4.60;1.73;;;;;;;;;;5065795;28;20205;-60
2021/07/07 13:11:21;;;;;;;2.95;1.60;;;;;;;;;;5068723;28;20200;-61
2021/07/07 13:13:52;;;;;;;2.13;1.33;;;;;;;;;;5070355;28;20293;-61
2021/07/07 13:16:26;;;;;;;3.58;1.38;;;;;;;;;;5072835;28;20196;-62
2021/07/07 13:19:14;;;;;;;4.03;1.48;;;;;;;;;;5064449;28;20210;-62
2021/07/07 13:21:52;;;;;;;7.78;1.67;;;;;;;;;;5053188;28;20559;-62
2021/07/07 13:24:20;;;;;;;2.78;1.20;;;;;;;;;;5066433;28;20189;-60
2021/07/07 13:26:55;;;;;;;2.95;1.40;;;;;;;;;;5043543;28;20185;-62
2021/07/07 13:29:21;;;;;;;3.25;1.30;;;;;;;;;;5067217;28;20312;-60
2021/07/07 13:32:29;;;;;;;3.35;1.40;;;;;;;;;;5063618;28;20711;-61
2021/07/07 13:34:57;;;;;;;2.83;1.42;;;;;;;;;;5051780;28;20197;-63
2021/07/07 13:37:33;;;;;;;3.85;1.60;;;;;;;;;;5070611;28;20653;-60
2021/07/07 13:40:09;;;;;;;3.53;1.27;;;;;;;;;;5067491;28;20208;-61
2021/07/07 13:42:37;;;;;;;4.50;1.63;;;;;;;;;;5068865;28;20628;-61
2021/07/07 13:45:03;;;;;;;5.35;1.25;;;;;;;;;;5066903;28;20227;-62
2021/07/07 13:47:29;;;;;;;3.25;1.40;;;;;;;;;;5070019;28;20185;-61
2021/07/07 13:49:56;;;;;;;3.15;1.23;;;;;;;;;;5067168;28;20595;-59
2021/07/07 13:52:21;;;;;;;5.20;1.30;;;;;;;;;;5050325;28;20204;-58
2021/07/07 13:54:48;;;;;;;3.75;1.30;;;;;;;;;;5061553;28;20194;-59
2021/07/07 13:57:13;;;;;;;2.60;1.20;;;;;;;;;;5050711;28;20579;-59
2021/07/07 13:59:40;;;;;;;3.17;1.48;;;;;;;;;;5066981;28;20209;-60
2021/07/07 14:02:06;;;;;;;2.45;1.10;;;;;;;;;;5059309;28;20186;-60
2021/07/07 14:04:32;;;;;;;4.50;1.38;;;;;;;;;;5074557;28;20611;-61
2021/07/07 14:06:57;;;;;;;4.80;1.30;;;;;;;;;;5064921;28;20197;-61
2021/07/07 14:09:23;;;;;;;3.80;1.40;;;;;;;;;;5071808;28;20209;-60
2021/07/07 14:11:49;;;;;;;5.60;1.70;;;;;;;;;;5069136;28;20242;-61
2021/07/07 14:14:14;;;;;;;4.85;1.35;;;;;;;;;;5068183;28;20208;-59
2021/07/07 14:16:39;;;;;;;1.55;1.30;;;;;;;;;;5056699;28;20192;-59
2021/07/07 14:19:05;;;;;;;6.93;2.15;;;;;;;;;;5052430;28;20205;-62
2021/07/07 14:21:31;;;;;;;2.83;1.42;;;;;;;;;;5070523;28;20200;-60
2021/07/07 14:23:56;;;;;;;3.92;1.45;;;;;;;;;;5067766;28;20193;-59
2021/07/07 14:26:22;;;;;;;4.20;1.40;;;;;;;;;;5067048;28;20185;-59
2021/07/07 14:28:48;;;;;;;1.80;1.20;;;;;;;;;;5059350;28;20330;-62
2021/07/07 14:31:14;;;;;;;2.88;1.42;;;;;;;;;;5052191;28;20276;-60
2021/07/07 14:33:40;;;;;;;3.70;1.30;;;;;;;;;;5051851;28;20324;-61
2021/07/07 14:36:06;;;;;;;2.92;1.50;;;;;;;;;;5074650;28;20196;-60
2021/07/07 14:38:31;;;;;;;3.40;1.52;;;;;;;;;;5069537;28;20185;-61
2021/07/07 14:40:57;;;;;;;2.38;1.38;;;;;;;;;;5068237;28;20193;-59
2021/07/07 14:43:22;;;;;;;7.22;1.88;;;;;;;;;;5066141;28;20198;-59
2021/07/07 14:45:47;;;;;;;7.00;1.60;;;;;;;;;;5057223;28;20223;-59
2021/07/07 14:48:13;;;;;;;2.97;1.35;;;;;;;;;;5070443;28;20200;-60